Time;durP1;ratioP1;P1;durP2;ratioP2;P2;SDS_P1;SDS_P2;PMS_P1;PMS_P2;Temp;Humidity;BMP_temperature;BMP_pressure;BME280_temperature;BME280_humidity;BME280_pressure;Samples;Min_cycle;Max_cycle;Signal;HPM_P1;HPM_P2
2023/05/30 00:00:47;;;;;;;;;;;;;;;18.79;76.44;99296.56;5074905;28;19908;-76
2023/05/30 00:03:12;;;;;;;;;;;;;;;18.73;77.04;99293.81;5075039;28;20359;-77
2023/05/30 00:05:38;;;;;;;;;;;;;;;18.72;75.59;99296.72;5074781;28;19987;-76
2023/05/30 00:08:03;;;;;;;;;;;;;;;18.72;75.86;99294.03;5074776;28;20434;-73
2023/05/30 00:10:28;;;;;;;;;;;;;;;18.70;75.49;99298.81;5073520;28;19905;-76
2023/05/30 00:12:54;;;;;;;;;;;;;;;18.71;75.95;99292.41;5074811;28;19913;-76
2023/05/30 00:15:19;;;;;;;;;;;;;;;18.70;76.76;99294.28;5074759;28;19953;-76
2023/05/30 00:17:45;;;;;;;;;;;;;;;18.71;75.68;99289.75;5074600;28;19912;-74
2023/05/30 00:20:11;;;;;;;;;;;;;;;18.72;75.83;99283.34;5074527;28;19912;-75
2023/05/30 00:22:38;;;;;;;;;;;;;;;18.74;75.82;99283.91;5074601;28;19912;-75
2023/05/30 00:25:04;;;;;;;;;;;;;;;18.75;75.25;99280.19;5074504;28;19920;-75
2023/05/30 00:27:29;;;;;;;;;;;;;;;18.76;75.58;99286.34;5074405;28;19908;-75
2023/05/30 00:29:55;;;;;;;;;;;;;;;18.73;76.12;99285.78;5074501;28;20286;-76
2023/05/30 00:32:20;;;;;;;;;;;;;;;18.67;76.03;99286.72;5074493;28;19912;-75
2023/05/30 00:34:45;;;;;;;;;;;;;;;18.68;75.89;99287.53;5074176;28;19916;-76
2023/05/30 00:37:10;;;;;;;;;;;;;;;18.66;75.40;99285.09;5073042;28;20399;-76
2023/05/30 00:39:36;;;;;;;;;;;;;;;18.64;75.19;99287.19;5074485;28;19909;-75
2023/05/30 00:42:02;;;;;;;;;;;;;;;18.58;75.17;99290.78;5073008;28;19948;-75
2023/05/30 00:44:27;;;;;;;;;;;;;;;18.54;75.97;99289.59;5074371;28;19916;-75
2023/05/30 00:46:53;;;;;;;;;;;;;;;18.57;75.78;99289.13;5074228;28;19909;-75
2023/05/30 00:49:19;;;;;;;;;;;;;;;18.58;75.88;99296.13;5074139;28;20417;-77
2023/05/30 00:51:44;;;;;;;;;;;;;;;18.53;76.16;99293.31;5074073;28;19908;-75
2023/05/30 00:54:09;;;;;;;;;;;;;;;18.57;75.54;99301.69;5074455;28;19956;-75
2023/05/30 00:56:35;;;;;;;;;;;;;;;18.56;75.48;99292.84;5074295;28;19944;-75
2023/05/30 00:59:01;;;;;;;;;;;;;;;18.57;75.58;99296.34;5074189;28;19908;-75
2023/05/30 01:01:27;;;;;;;;;;;;;;;18.58;75.34;99293.47;5074255;28;19912;-75
2023/05/30 01:03:52;;;;;;;;;;;;;;;18.58;75.70;99297.97;5074157;28;19987;-75
2023/05/30 01:06:20;;;;;;;;;;;;;;;18.59;75.46;99300.44;5073909;28;19908;-75
2023/05/30 01:08:46;;;;;;;;;;;;;;;18.60;75.23;99301.25;5072104;28;19912;-75
2023/05/30 01:11:17;;;;;;;;;;;;;;;18.60;74.75;99294.03;5073056;28;19908;-77
2023/05/30 01:13:59;;;;;;;;;;;;;;;18.58;75.14;99298.81;5073582;28;20385;-75
2023/05/30 01:16:28;;;;;;;;;;;;;;;18.62;74.94;99288.47;5072402;28;20335;-75
2023/05/30 01:18:58;;;;;;;;;;;;;;;18.60;74.65;99287.88;5073806;28;19931;-75
2023/05/30 01:21:24;;;;;;;;;;;;;;;18.59;74.65;99297.75;5073674;28;19908;-75
2023/05/30 01:24:02;;;;;;;;;;;;;;;18.57;74.52;99291.00;5073693;28;19909;-76
2023/05/30 01:26:46;;;;;;;;;;;;;;;18.53;74.86;99293.31;5073842;28;19908;-76
2023/05/30 01:29:14;;;;;;;;;;;;;;;18.55;74.41;99287.75;5072095;28;19927;-75
2023/05/30 01:31:40;;;;;;;;;;;;;;;18.52;74.13;99290.88;5071985;28;19908;-75
2023/05/30 01:34:06;;;;;;;;;;;;;;;18.51;74.12;99291.94;5072035;28;19915;-76
2023/05/30 01:36:31;;;;;;;;;;;;;;;18.55;74.19;99295.75;5073385;28;19984;-75
2023/05/30 01:38:56;;;;;;;;;;;;;;;18.55;74.35;99293.91;5073497;28;20397;-75
2023/05/30 01:41:28;;;;;;;;;;;;;;;18.56;74.10;99292.84;5073626;28;19908;-75
2023/05/30 01:44:10;;;;;;;;;;;;;;;18.57;74.54;99278.44;5073296;28;19915;-74
2023/05/30 01:46:42;;;;;;;;;;;;;;;18.58;74.09;99284.59;5073467;28;19957;-75
2023/05/30 01:49:08;;;;;;;;;;;;;;;18.59;74.43;99295.09;5073395;28;19912;-74
2023/05/30 01:51:40;;;;;;;;;;;;;;;18.60;74.28;99288.69;5073051;28;19991;-75
2023/05/30 01:54:07;;;;;;;;;;;;;;;18.61;74.45;99285.00;5072948;28;19915;-75
2023/05/30 01:56:34;;;;;;;;;;;;;;;18.58;74.08;99285.44;5073003;28;20033;-75
2023/05/30 01:58:59;;;;;;;;;;;;;;;18.58;74.75;99290.78;5073045;28;19908;-75
2023/05/30 02:01:28;;;;;;;;;;;;;;;18.57;74.76;99299.81;5071667;28;20373;-75
2023/05/30 02:03:53;;;;;;;;;;;;;;;18.59;74.30;99300.44;5072995;28;19915;-74
2023/05/30 02:06:19;;;;;;;;;;;;;;;18.61;74.30;99301.03;5072679;28;19908;-75
2023/05/30 02:08:44;;;;;;;;;;;;;;;18.60;74.04;99293.22;5072548;28;19918;-75
2023/05/30 02:11:10;;;;;;;;;;;;;;;18.59;74.37;99296.94;5072647;28;19908;-75
2023/05/30 02:13:35;;;;;;;;;;;;;;;18.60;73.93;99301.25;5072465;28;19945;-75
2023/05/30 02:16:01;;;;;;;;;;;;;;;18.60;74.24;99298.56;5071632;28;20029;-75
2023/05/30 02:18:27;;;;;;;;;;;;;;;18.63;74.05;99306.97;5073155;28;19932;-75
2023/05/30 02:20:53;;;;;;;;;;;;;;;18.67;74.01;99305.44;5072138;28;19908;-74
2023/05/30 02:23:18;;;;;;;;;;;;;;;18.68;73.95;99312.41;5072705;28;19980;-74
2023/05/30 02:25:43;;;;;;;;;;;;;;;18.69;74.70;99308.69;5072752;28;20444;-74
2023/05/30 02:28:09;;;;;;;;;;;;;;;18.70;75.06;99317.53;5070884;28;19917;-74
2023/05/30 02:30:34;;;;;;;;;;;;;;;18.71;74.81;99308.47;5070967;28;20005;-75
2023/05/30 02:32:59;;;;;;;;;;;;;;;18.71;74.23;99311.13;5072265;28;19913;-74
2023/05/30 02:35:24;;;;;;;;;;;;;;;18.72;74.26;99312.75;5072315;28;19965;-75
2023/05/30 02:37:50;;;;;;;;;;;;;;;18.76;74.39;99308.56;5072143;28;19915;-75
2023/05/30 02:40:15;;;;;;;;;;;;;;;18.78;74.02;99314.50;5072224;28;19908;-76
2023/05/30 02:42:40;;;;;;;;;;;;;;;18.79;73.94;99316.13;5073586;28;19916;-76
2023/05/30 02:45:06;;;;;;;;;;;;;;;18.79;74.32;99310.75;5072209;28;19908;-75
2023/05/30 02:47:32;;;;;;;;;;;;;;;18.79;74.03;99309.94;5072177;28;19994;-75
2023/05/30 02:49:57;;;;;;;;;;;;;;;18.77;73.77;99312.06;5072160;28;20365;-76
2023/05/30 02:52:23;;;;;;;;;;;;;;;18.77;73.91;99318.22;5071883;28;19916;-75
2023/05/30 02:54:51;;;;;;;;;;;;;;;18.75;74.27;99311.47;5071747;28;20011;-75
2023/05/30 02:57:16;;;;;;;;;;;;;;;18.75;74.27;99312.28;5071678;28;19908;-75
2023/05/30 02:59:42;;;;;;;;;;;;;;;18.74;74.11;99310.66;5071840;28;19996;-76
2023/05/30 03:02:09;;;;;;;;;;;;;;;18.75;74.34;99314.16;5071782;28;19909;-75
2023/05/30 03:04:36;;;;;;;;;;;;;;;18.76;74.17;99310.44;5071615;28;19915;-76
2023/05/30 03:07:02;;;;;;;;;;;;;;;18.76;73.83;99315.78;5070253;28;20324;-75
2023/05/30 03:09:27;;;;;;;;;;;;;;;18.75;74.22;99320.31;5070352;28;19905;-75
2023/05/30 03:11:52;;;;;;;;;;;;;;;18.77;74.13;99323.56;5071578;28;19917;-76
2023/05/30 03:14:18;;;;;;;;;;;;;;;18.79;73.75;99332.16;5070507;28;19974;-76
2023/05/30 03:16:43;;;;;;;;;;;;;;;18.82;74.08;99334.38;5070490;28;19909;-76
2023/05/30 03:19:08;;;;;;;;;;;;;;;18.82;73.80;99339.72;5071679;28;19912;-76
2023/05/30 03:21:34;;;;;;;;;;;;;;;18.81;73.82;99338.09;5071570;28;19909;-75
2023/05/30 03:23:59;;;;;;;;;;;;;;;18.79;73.57;99334.03;5071494;28;20404;-75
2023/05/30 03:26:24;;;;;;;;;;;;;;;18.78;73.58;99337.75;5071405;28;19908;-76
2023/05/30 03:28:50;;;;;;;;;;;;;;;18.77;73.32;99350.31;5070022;28;20416;-76
2023/05/30 03:31:16;;;;;;;;;;;;;;;18.73;73.42;99341.94;5071313;28;19996;-76
2023/05/30 03:33:41;;;;;;;;;;;;;;;18.71;73.57;99348.56;5073462;28;19912;-76
2023/05/30 03:36:07;;;;;;;;;;;;;;;18.71;73.58;99352.06;5075424;28;19909;-75
2023/05/30 03:38:33;;;;;;;;;;;;;;;18.71;73.57;99354.75;5075289;28;20435;-75
2023/05/30 03:40:58;;;;;;;;;;;;;;;18.72;73.45;99358.22;5073997;28;19912;-76
2023/05/30 03:43:23;;;;;;;;;;;;;;;18.71;73.35;99354.75;5075227;28;19908;-76
2023/05/30 03:45:49;;;;;;;;;;;;;;;18.71;73.23;99359.28;5075246;28;19909;-76
2023/05/30 03:48:14;;;;;;;;;;;;;;;18.70;73.25;99355.78;5075238;28;19965;-76
2023/05/30 03:50:39;;;;;;;;;;;;;;;18.72;73.01;99355.56;5074175;28;19991;-76
2023/05/30 03:53:05;;;;;;;;;;;;;;;18.69;73.04;99356.84;5075175;28;19912;-75
2023/05/30 03:55:30;;;;;;;;;;;;;;;18.71;72.42;99356.59;5075028;28;19973;-75
2023/05/30 03:57:56;;;;;;;;;;;;;;;18.70;72.16;99360.31;5075177;28;19962;-76
2023/05/30 04:00:21;;;;;;;;;;;;;;;18.67;72.22;99355.44;5075127;28;19998;-76
2023/05/30 04:02:46;;;;;;;;;;;;;;;18.65;72.40;99357.53;5075000;28;20372;-76
2023/05/30 04:05:11;;;;;;;;;;;;;;;18.63;72.74;99357.78;5073508;28;20352;-76
2023/05/30 04:07:37;;;;;;;;;;;;;;;18.66;72.14;99361.84;5073589;28;19915;-75
2023/05/30 04:10:03;;;;;;;;;;;;;;;18.66;72.21;99359.16;5074886;28;20002;-76
2023/05/30 04:12:29;;;;;;;;;;;;;;;18.67;72.16;99366.97;5074800;28;19920;-74
2023/05/30 04:14:54;;;;;;;;;;;;;;;18.66;72.42;99368.00;5073315;28;19915;-76
2023/05/30 04:17:19;;;;;;;;;;;;;;;18.67;72.27;99382.19;5074558;28;19901;-75
2023/05/30 04:19:44;;;;;;;;;;;;;;;18.66;72.38;99368.00;5073499;28;20003;-75
2023/05/30 04:22:10;;;;;;;;;;;;;;;18.66;72.36;99373.34;5073545;28;19908;-76
2023/05/30 04:24:35;;;;;;;;;;;;;;;18.70;72.43;99368.34;5074631;28;19908;-76
2023/05/30 04:27:02;;;;;;;;;;;;;;;18.71;72.26;99372.66;5074556;28;19912;-75
2023/05/30 04:29:27;;;;;;;;;;;;;;;18.72;72.07;99374.28;5074322;28;19916;-76
2023/05/30 04:31:52;;;;;;;;;;;;;;;18.73;72.23;99375.91;5074284;28;19919;-76
2023/05/30 04:34:18;;;;;;;;;;;;;;;18.75;72.25;99376.47;5073039;28;19966;-76
2023/05/30 04:36:44;;;;;;;;;;;;;;;18.76;72.59;99371.94;5074336;28;19987;-75
2023/05/30 04:39:09;;;;;;;;;;;;;;;18.78;72.19;99377.88;5074629;28;19962;-76
2023/05/30 04:41:35;;;;;;;;;;;;;;;18.77;72.45;99382.41;5074504;28;19908;-75
2023/05/30 04:44:02;;;;;;;;;;;;;;;18.80;71.94;99394.50;5073950;28;19912;-75
2023/05/30 04:46:28;;;;;;;;;;;;;;;18.78;72.20;99393.91;5074597;28;19908;-76
2023/05/30 04:48:55;;;;;;;;;;;;;;;18.79;72.08;99398.22;5074226;28;19915;-76
2023/05/30 04:51:21;;;;;;;;;;;;;;;18.79;72.34;99399.03;5073994;28;19991;-75
2023/05/30 04:53:46;;;;;;;;;;;;;;;18.80;72.28;99391.81;5074402;28;20004;-77
2023/05/30 04:56:11;;;;;;;;;;;;;;;18.80;72.32;99389.97;5074408;28;19948;-76
2023/05/30 04:58:37;;;;;;;;;;;;;;;18.75;72.64;99395.19;5074303;28;19908;-76
2023/05/30 05:01:02;;;;;;;;;;;;;;;18.74;72.50;99390.91;5072767;28;19909;-75
2023/05/30 05:03:27;;;;;;;;;;;;;;;18.75;72.31;99399.72;5074216;28;19908;-75
2023/05/30 05:05:53;;;;;;;;;;;;;;;18.71;72.99;99400.22;5072786;28;20356;-75
2023/05/30 05:08:18;;;;;;;;;;;;;;;18.73;71.89;99405.31;5072771;28;19913;-75
2023/05/30 05:10:43;;;;;;;;;;;;;;;18.67;72.38;99404.41;5074100;28;19916;-75
2023/05/30 05:13:08;;;;;;;;;;;;;;;18.60;72.45;99406.34;5073929;28;19913;-74
2023/05/30 05:15:34;;;;;;;;;;;;;;;18.65;72.34;99411.84;5073862;28;20428;-75
2023/05/30 05:17:59;;;;;;;;;;;;;;;18.68;72.24;99415.91;5072417;28;19931;-75
2023/05/30 05:20:26;;;;;;;;;;;;;;;18.68;72.34;99414.03;5072278;28;19909;-75
2023/05/30 05:22:53;;;;;;;;;;;;;;;18.68;72.20;99413.22;5073458;28;19991;-74
2023/05/30 05:25:18;;;;;;;;;;;;;;;18.75;72.07;99415.78;5072275;28;19909;-75
2023/05/30 05:27:43;;;;;;;;;;;;;;;18.83;71.78;99418.91;5073581;28;20086;-75
2023/05/30 05:30:10;;;;;;;;;;;;;;;18.88;71.55;99424.38;5073495;28;20401;-75
2023/05/30 05:32:38;;;;;;;;;;;;;;;18.90;71.01;99424.94;5073467;28;19952;-74
2023/05/30 05:35:04;;;;;;;;;;;;;;;18.94;70.99;99425.28;5073899;28;19908;-74
2023/05/30 05:37:30;;;;;;;;;;;;;;;18.95;71.35;99434.94;5073389;28;19915;-75
2023/05/30 05:39:55;;;;;;;;;;;;;;;18.94;71.21;99425.28;5073624;28;19904;-76
2023/05/30 05:42:20;;;;;;;;;;;;;;;18.92;71.43;99436.22;5070224;28;20438;-76
2023/05/30 05:44:46;;;;;;;;;;;;;;;18.93;71.58;99432.50;5068082;28;19912;-75
2023/05/30 05:47:11;;;;;;;;;;;;;;;18.98;71.37;99434.47;5053403;28;19999;-75
2023/05/30 05:49:36;;;;;;;;;;;;;;;19.02;71.57;99432.97;5053582;28;20301;-76
2023/05/30 05:52:01;;;;;;;;;;;;;;;19.02;71.57;99425.75;5072825;28;19919;-76
2023/05/30 05:54:27;;;;;;;;;;;;;;;19.04;71.48;99439.69;5072530;28;20364;-75
2023/05/30 05:56:52;;;;;;;;;;;;;;;18.98;72.07;99437.16;5066799;28;20335;-76
2023/05/30 05:59:17;;;;;;;;;;;;;;;18.90;71.78;99440.19;5067816;28;19920;-77
2023/05/30 06:01:43;;;;;;;;;;;;;;;18.90;71.92;99445.53;5070815;28;20004;-76
2023/05/30 06:04:08;;;;;;;;;;;;;;;18.93;71.86;99453.91;5072651;28;19908;-76
2023/05/30 06:06:34;;;;;;;;;;;;;;;18.96;72.07;99455.31;5066254;28;20375;-76
2023/05/30 06:09:18;;;;;;;;;;;;;;;18.95;71.80;99462.53;5058175;28;19913;-76
2023/05/30 06:11:43;;;;;;;;;;;;;;;18.99;72.11;99462.88;5057443;28;20290;-75
2023/05/30 06:14:08;;;;;;;;;;;;;;;19.04;71.71;99468.31;5072501;28;19943;-76
2023/05/30 06:16:33;;;;;;;;;;;;;;;19.07;71.71;99473.22;5072201;28;19934;-77
2023/05/30 06:18:59;;;;;;;;;;;;;;;19.12;71.59;99483.22;5072281;28;19912;-77
2023/05/30 06:21:24;;;;;;;;;;;;;;;19.16;71.81;99484.38;5072285;28;19966;-77
2023/05/30 06:23:49;;;;;;;;;;;;;;;19.15;71.08;99480.88;5072234;28;19961;-77
2023/05/30 06:26:15;;;;;;;;;;;;;;;19.16;71.32;99479.81;5070773;28;19915;-76
2023/05/30 06:28:40;;;;;;;;;;;;;;;19.18;71.54;99483.09;5071931;28;19960;-76
2023/05/30 06:31:06;;;;;;;;;;;;;;;19.21;71.30;99487.97;5072000;28;20400;-76
2023/05/30 06:33:31;;;;;;;;;;;;;;;19.21;71.24;99493.31;5070858;28;20377;-76
2023/05/30 06:35:56;;;;;;;;;;;;;;;19.24;70.83;99492.84;5068917;28;19913;-77
2023/05/30 06:38:23;;;;;;;;;;;;;;;19.21;71.07;99492.50;5072232;28;20365;-77
2023/05/30 06:40:48;;;;;;;;;;;;;;;19.19;71.09;99489.25;5052711;28;19913;-76
2023/05/30 06:43:13;;;;;;;;;;;;;;;19.21;70.64;99490.63;5051975;28;20003;-76
2023/05/30 06:45:39;;;;;;;;;;;;;;;19.25;70.55;99485.63;5050754;28;19955;-76
2023/05/30 06:48:04;;;;;;;;;;;;;;;19.29;70.30;99489.47;5068868;28;20337;-76
2023/05/30 06:50:29;;;;;;;;;;;;;;;19.30;70.40;99491.91;5070647;28;19908;-76
2023/05/30 06:52:55;;;;;;;;;;;;;;;19.33;70.07;99491.47;5070402;28;19919;-75
2023/05/30 06:55:20;;;;;;;;;;;;;;;19.34;70.35;99492.28;5071711;28;19908;-77
2023/05/30 06:57:48;;;;;;;;;;;;;;;19.39;70.26;99495.06;5070366;28;19909;-77
2023/05/30 07:00:14;;;;;;;;;;;;;;;19.41;70.24;99492.94;5071767;28;20348;-78
2023/05/30 07:02:39;;;;;;;;;;;;;;;19.40;70.48;99494.00;5071989;28;19909;-77
2023/05/30 07:05:05;;;;;;;;;;;;;;;19.36;70.80;99498.22;5071555;28;19908;-77
2023/05/30 07:07:30;;;;;;;;;;;;;;;19.38;70.68;99500.66;5071545;28;19974;-78
2023/05/30 07:09:55;;;;;;;;;;;;;;;19.39;70.67;99495.06;5070397;28;19964;-76
2023/05/30 07:12:21;;;;;;;;;;;;;;;19.50;70.67;99506.78;5072092;28;19913;-74
2023/05/30 07:14:46;;;;;;;;;;;;;;;19.57;70.07;99500.28;5064800;28;20006;-77
2023/05/30 07:17:11;;;;;;;;;;;;;;;19.65;70.06;99496.41;5053785;28;19920;-75
2023/05/30 07:19:37;;;;;;;;;;;;;;;19.71;69.92;99500.81;5049418;28;20067;-75
2023/05/30 07:22:02;;;;;;;;;;;;;;;19.77;69.54;99505.22;5051487;28;19916;-77
2023/05/30 07:24:27;;;;;;;;;;;;;;;19.84;69.45;99497.84;5051506;28;20350;-77
2023/05/30 07:26:53;;;;;;;;;;;;;;;19.88;69.07;99501.69;5051425;28;19911;-74
2023/05/30 07:29:18;;;;;;;;;;;;;;;19.90;69.19;99504.13;5051162;28;19992;-75
2023/05/30 07:31:44;;;;;;;;;;;;;;;20.00;69.03;99498.94;5050994;28;19939;-77
2023/05/30 07:34:09;;;;;;;;;;;;;;;20.09;68.75;99494.03;5051122;28;20297;-74
2023/05/30 07:36:35;;;;;;;;;;;;;;;20.17;68.22;99499.00;5049968;28;19962;-76
2023/05/30 07:39:00;;;;;;;;;;;;;;;20.17;68.30;99499.81;5051295;28;19909;-77
2023/05/30 07:41:26;;;;;;;;;;;;;;;20.22;67.80;99505.25;5056066;28;19913;-77
2023/05/30 07:43:51;;;;;;;;;;;;;;;20.22;67.78;99501.78;5071003;28;19908;-77
2023/05/30 07:46:17;;;;;;;;;;;;;;;20.29;67.70;99497.06;5069848;28;20281;-77
2023/05/30 07:48:42;;;;;;;;;;;;;;;20.35;67.03;99500.66;5061626;28;19913;-76
2023/05/30 07:51:09;;;;;;;;;;;;;;;20.42;67.24;99501.34;5062771;28;19917;-77
2023/05/30 07:53:34;;;;;;;;;;;;;;;20.46;67.22;99497.09;5051034;28;19959;-76
2023/05/30 07:56:00;;;;;;;;;;;;;;;20.47;67.01;99496.06;5051032;28;20390;-76
2023/05/30 07:58:25;;;;;;;;;;;;;;;20.54;66.72;99502.88;5050991;28;20397;-75
2023/05/30 08:00:50;;;;;;;;;;;;;;;20.60;66.38;99498.41;5050925;28;19917;-77
2023/05/30 08:03:16;;;;;;;;;;;;;;;20.61;66.36;99500.03;5050933;28;19908;-77
2023/05/30 08:05:41;;;;;;;;;;;;;;;20.65;66.10;99505.72;5051045;28;20312;-77
2023/05/30 08:08:07;;;;;;;;;;;;;;;20.61;66.24;99500.84;5055885;28;19928;-77
2023/05/30 08:10:32;;;;;;;;;;;;;;;20.62;66.23;99504.34;5067685;28;19908;-74
2023/05/30 08:12:58;;;;;;;;;;;;;;;20.64;66.00;99504.91;5070906;28;20404;-74
2023/05/30 08:15:23;;;;;;;;;;;;;;;20.71;66.18;99508.25;5067406;28;19991;-75
2023/05/30 08:17:49;;;;;;;;;;;;;;;20.74;65.91;99513.13;5070784;28;19912;-77
2023/05/30 08:20:16;;;;;;;;;;;;;;;20.78;65.32;99511.56;5073565;28;19913;-75
2023/05/30 08:22:41;;;;;;;;;;;;;;;20.81;65.32;99503.06;5074676;28;19908;-76
2023/05/30 08:25:07;;;;;;;;;;;;;;;20.86;65.58;99510.38;5066852;28;19919;-77
2023/05/30 08:27:34;;;;;;;;;;;;;;;20.91;64.98;99511.25;5074117;28;19908;-74
2023/05/30 08:29:59;;;;;;;;;;;;;;;21.00;64.06;99511.66;5074101;28;19908;-76
2023/05/30 08:32:26;;;;;;;;;;;;;;;21.10;64.21;99517.16;5067186;28;19923;-77
2023/05/30 08:34:51;;;;;;;;;;;;;;;21.24;64.13;99509.59;5063180;28;19912;-76
2023/05/30 08:37:17;;;;;;;;;;;;;;;21.36;63.11;99504.91;5066426;28;20356;-77
2023/05/30 08:39:42;;;;;;;;;;;;;;;21.42;63.36;99506.59;5054447;28;19924;-73
2023/05/30 08:42:08;;;;;;;;;;;;;;;21.54;63.21;99514.53;5054270;28;19955;-77
2023/05/30 08:44:34;;;;;;;;;;;;;;;21.58;61.94;99510.31;5053046;28;20007;-76
2023/05/30 08:46:59;;;;;;;;;;;;;;;21.66;62.33;99509.06;5072538;28;19935;-74
2023/05/30 08:49:27;;;;;;;;;;;;;;;21.77;61.53;99514.31;5073519;28;20374;-75
2023/05/30 08:51:53;;;;;;;;;;;;;;;21.82;61.97;99521.63;5054484;28;19909;-76
2023/05/30 08:54:22;;;;;;;;;;;;;;;21.91;62.73;99511.22;5054840;28;20430;-75
2023/05/30 08:57:10;;;;;;;;;;;;;;;21.95;62.34;99517.72;5055447;28;20297;-77
2023/05/30 08:59:36;;;;;;;;;;;;;;;22.06;61.76;99519.47;5054343;28;19908;-74
2023/05/30 09:02:02;;;;;;;;;;;;;;;22.16;60.91;99517.69;5055111;28;19919;-76
2023/05/30 09:04:29;;;;;;;;;;;;;;;22.28;61.53;99514.84;5054317;28;19912;-75
2023/05/30 09:06:56;;;;;;;;;;;;;;;22.47;61.03;99508.06;5054065;28;19908;-76
2023/05/30 09:09:23;;;;;;;;;;;;;;;22.65;60.86;99517.59;5054295;28;19909;-76
2023/05/30 09:11:48;;;;;;;;;;;;;;;22.70;60.34;99517.66;5054103;28;19919;-75
2023/05/30 09:14:14;;;;;;;;;;;;;;;22.78;58.74;99509.09;5056530;28;19916;-75
2023/05/30 09:16:39;;;;;;;;;;;;;;;22.85;59.13;99508.91;5054187;28;20436;-76
2023/05/30 09:19:05;;;;;;;;;;;;;;;22.86;59.47;99510.53;5054035;28;19915;-76
2023/05/30 09:21:31;;;;;;;;;;;;;;;22.90;59.73;99511.63;5053753;28;19962;-75
2023/05/30 09:24:05;;;;;;;;;;;;;;;23.05;59.35;99510.94;5053931;28;19908;-77
2023/05/30 09:26:32;;;;;;;;;;;;;;;23.17;58.43;99516.13;5052163;28;19930;-77
2023/05/30 09:29:01;;;;;;;;;;;;;;;23.18;56.43;99506.97;5053181;28;19938;-77
2023/05/30 09:31:26;;;;;;;;;;;;;;;23.21;56.67;99504.56;5057607;28;19913;-77
2023/05/30 09:33:52;;;;;;;;;;;;;;;23.35;55.80;99504.91;5059120;28;19975;-76
2023/05/30 09:36:21;;;;;;;;;;;;;;;23.46;57.51;99509.25;5062659;28;19917;-76
2023/05/30 09:38:53;;;;;;;;;;;;;;;23.48;56.43;99503.59;5053444;28;20397;-76
2023/05/30 09:41:18;;;;;;;;;;;;;;;23.44;56.07;99492.53;5054264;28;19956;-76
2023/05/30 09:43:45;;;;;;;;;;;;;;;23.42;57.85;99490.13;5057860;28;20009;-77
2023/05/30 09:46:10;;;;;;;;;;;;;;;23.68;57.36;99482.97;5072929;28;19915;-75
2023/05/30 09:48:39;;;;;;;;;;;;;;;24.05;56.36;99480.09;5073072;28;19912;-76
2023/05/30 09:51:05;;;;;;;;;;;;;;;24.31;55.41;99482.84;5060949;28;19917;-76
2023/05/30 09:53:32;;;;;;;;;;;;;;;24.39;55.05;99479.59;5051487;28;19967;-77
2023/05/30 09:55:57;;;;;;;;;;;;;;;24.43;54.76;99471.78;5054037;28;19909;-76
2023/05/30 09:58:23;;;;;;;;;;;;;;;24.73;54.44;99469.09;5066246;28;19912;-76
2023/05/30 10:00:55;;;;;;;;;;;;;;;25.05;54.43;99470.66;5068469;28;19974;-75
2023/05/30 10:03:21;;;;;;;;;;;;;;;25.29;54.02;99472.50;5066057;28;19912;-76
2023/05/30 10:05:46;;;;;;;;;;;;;;;25.23;51.12;99464.66;5052647;28;19966;-76
2023/05/30 10:08:13;;;;;;;;;;;;;;;25.12;51.29;99476.59;5059924;28;19915;-76
2023/05/30 10:10:39;;;;;;;;;;;;;;;25.05;53.24;99462.56;5072928;28;19978;-76
2023/05/30 10:13:04;;;;;;;;;;;;;;;24.81;51.50;99470.41;5068332;28;20041;-77
2023/05/30 10:15:30;;;;;;;;;;;;;;;24.52;52.93;99476.38;5072517;28;20458;-75
2023/05/30 10:18:04;;;;;;;;;;;;;;;24.82;53.01;99467.44;5072425;28;19916;-75
2023/05/30 10:20:30;;;;;;;;;;;;;;;25.16;52.73;99464.94;5071421;28;19913;-77
2023/05/30 10:22:56;;;;;;;;;;;;;;;25.42;50.58;99451.34;5058992;28;19919;-74
2023/05/30 10:25:25;;;;;;;;;;;;;;;25.84;51.06;99453.59;5072532;28;19916;-73
2023/05/30 10:27:52;;;;;;;;;;;;;;;26.12;50.06;99452.06;5068606;28;19973;-76
2023/05/30 10:30:21;;;;;;;;;;;;;;;26.21;49.83;99453.06;5072284;28;19912;-76
2023/05/30 10:32:49;;;;;;;;;;;;;;;25.96;48.67;99452.16;5072009;28;19998;-77
2023/05/30 10:35:17;;;;;;;;;;;;;;;25.94;49.94;99451.63;5071890;28;19915;-75
2023/05/30 10:37:43;;;;;;;;;;;;;;;26.09;50.11;99448.03;5068313;28;19970;-76
2023/05/30 10:40:20;;;;;;;;;;;;;;;26.23;49.13;99453.59;5064947;28;19916;-76
2023/05/30 10:43:06;;;;;;;;;;;;;;;26.24;49.41;99447.91;5052386;28;19917;-76
2023/05/30 10:45:39;;;;;;;;;;;;;;;26.52;46.92;99440.13;5068536;28;19948;-76
2023/05/30 10:48:15;;;;;;;;;;;;;;;26.75;48.82;99439.34;5053549;28;19962;-76
2023/05/30 10:50:42;;;;;;;;;;;;;;;27.01;48.66;99436.41;5072118;28;19919;-77
2023/05/30 10:53:20;;;;;;;;;;;;;;;26.68;46.39;99446.19;5068369;28;19912;-76
2023/05/30 10:55:46;;;;;;;;;;;;;;;26.32;47.69;99440.28;5071726;28;19931;-77
2023/05/30 10:58:30;;;;;;;;;;;;;;;26.15;47.89;99436.06;5058581;28;20368;-75
2023/05/30 11:01:15;;;;;;;;;;;;;;;26.53;45.83;99452.56;5052123;28;20352;-77
2023/05/30 11:03:44;;;;;;;;;;;;;;;26.85;47.02;99439.25;5051472;28;19909;-75
2023/05/30 11:06:10;;;;;;;;;;;;;;;27.35;44.80;99437.06;5050395;28;20293;-74
2023/05/30 11:08:38;;;;;;;;;;;;;;;27.57;45.19;99443.88;5051338;28;19999;-75
2023/05/30 11:11:14;;;;;;;;;;;;;;;27.74;45.89;99431.44;5059149;28;19958;-76
2023/05/30 11:13:43;;;;;;;;;;;;;;;27.80;44.32;99419.41;5051647;28;19920;-76
2023/05/30 11:16:23;;;;;;;;;;;;;;;28.05;42.22;99417.41;5054688;28;19909;-75
2023/05/30 11:18:53;;;;;;;;;;;;;;;28.14;43.32;99416.41;5068755;28;20072;-74
2023/05/30 11:21:36;;;;;;;;;;;;;;;28.17;42.28;99418.53;5051722;28;19908;-76
2023/05/30 11:24:03;;;;;;;;;;;;;;;28.26;43.77;99409.78;5050458;28;20293;-76
2023/05/30 11:26:47;;;;;;;;;;;;;;;28.25;43.79;99402.72;5051687;28;19908;-75
2023/05/30 11:29:28;;;;;;;;;;;;;;;28.26;41.44;99407.06;5050026;28;20313;-75
2023/05/30 11:31:53;;;;;;;;;;;;;;;28.30;42.43;99403.44;5050197;28;19922;-75
2023/05/30 11:34:19;;;;;;;;;;;;;;;28.61;43.37;99411.84;5051637;28;20356;-76
2023/05/30 11:36:46;;;;;;;;;;;;;;;28.53;45.08;99406.31;5052677;28;19944;-75
2023/05/30 11:39:11;;;;;;;;;;;;;;;28.39;43.21;99406.28;5051447;28;19908;-75
2023/05/30 11:41:37;;;;;;;;;;;;;;;28.40;41.90;99403.28;5049949;28;19954;-75
2023/05/30 11:46:58;;;;;;;;;;;;;;;28.93;43.62;99394.69;5052465;28;19919;-75
2023/05/30 11:49:23;;;;;;;;;;;;;;;29.23;42.74;99393.28;5058637;28;19912;-74
2023/05/30 11:51:49;;;;;;;;;;;;;;;29.28;42.76;99389.66;5052450;28;19920;-74
2023/05/30 11:54:14;;;;;;;;;;;;;;;29.07;41.70;99387.34;5059325;28;19981;-75
2023/05/30 11:56:40;;;;;;;;;;;;;;;28.55;44.14;99387.81;5062507;28;19935;-75
2023/05/30 11:59:07;;;;;;;;;;;;;;;27.98;43.81;99385.19;5059347;28;19917;-75
2023/05/30 12:01:32;;;;;;;;;;;;;;;27.50;43.80;99388.09;5053444;28;20404;-75
2023/05/30 12:03:58;;;;;;;;;;;;;;;27.09;45.45;99387.78;5054740;28;19954;-76
2023/05/30 12:06:23;;;;;;;;;;;;;;;26.82;45.91;99387.56;5054931;28;19948;-77
2023/05/30 12:08:48;;;;;;;;;;;;;;;26.61;46.40;99384.25;5054936;28;20376;-77
2023/05/30 12:11:15;;;;;;;;;;;;;;;26.40;47.41;99389.06;5055780;28;19913;-76
2023/05/30 12:13:40;;;;;;;;;;;;;;;26.22;45.46;99385.13;5055781;28;20059;-76
2023/05/30 12:16:06;;;;;;;;;;;;;;;26.00;45.96;99379.34;5066601;28;20441;-77
2023/05/30 12:18:32;;;;;;;;;;;;;;;25.84;47.74;99381.38;5074717;28;20250;-76
2023/05/30 12:21:01;;;;;;;;;;;;;;;25.59;48.73;99389.63;5071068;28;20352;-77
2023/05/30 12:23:26;;;;;;;;;;;;;;;25.42;49.08;99389.19;5068022;28;19923;-77
2023/05/30 12:25:52;;;;;;;;;;;;;;;25.26;49.14;99391.13;5059051;28;19909;-76
2023/05/30 12:28:18;;;;;;;;;;;;;;;25.17;50.43;99385.50;5055998;28;19921;-74
2023/05/30 12:30:43;;;;;;;;;;;;;;;25.02;50.45;99390.97;5074324;28;19909;-77
2023/05/30 12:33:12;;;;;;;;;;;;;;;24.89;50.57;99383.44;5072620;28;19920;-76
2023/05/30 12:35:38;;;;;;;;;;;;;;;24.79;51.36;99396.97;5074231;28;20370;-73
2023/05/30 12:38:04;;;;;;;;;;;;;;;24.71;51.58;99399.16;5073963;28;19912;-74
2023/05/30 12:40:29;;;;;;;;;;;;;;;24.57;53.05;99395.41;5070533;28;19918;-74
2023/05/30 12:42:57;;;;;;;;;;;;;;;24.36;53.21;99383.00;5073997;28;19909;-76
2023/05/30 12:45:22;;;;;;;;;;;;;;;24.26;54.88;99391.06;5070394;28;20400;-74
2023/05/30 12:47:48;;;;;;;;;;;;;;;24.08;56.65;99395.94;5068873;28;19912;-75